Time;durP1;ratioP1;P1;durP2;ratioP2;P2;SDS_P1;SDS_P2;PMS_P1;PMS_P2;Temp;Humidity;BMP_temperature;BMP_pressure;BME280_temperature;BME280_humidity;BME280_pressure;Samples;Min_cycle;Max_cycle;Signal;HPM_P1;HPM_P2
2022/11/26 00:00:55;;;;;;;41.30;24.00;;;6.00;99.90;;;;;;5039281;28;20197;-82
2022/11/26 00:03:24;;;;;;;31.42;22.80;;;6.10;99.90;;;;;;5016137;28;20219;-81
2022/11/26 00:05:58;;;;;;;38.17;21.33;;;6.40;99.90;;;;;;5037477;28;20206;-82
2022/11/26 00:08:34;;;;;;;35.95;23.25;;;6.50;99.90;;;;;;5025437;28;20297;-84
2022/11/26 00:11:01;;;;;;;40.20;25.58;;;6.60;99.90;;;;;;5011045;28;20256;-82
2022/11/26 00:13:30;;;;;;;36.35;23.35;;;6.70;99.90;;;;;;5023988;28;20493;-81
2022/11/26 00:15:58;;;;;;;39.33;23.52;;;6.70;99.90;;;;;;5013287;28;20438;-81
2022/11/26 00:18:25;;;;;;;38.80;24.58;;;6.80;99.90;;;;;;5023168;28;20217;-81
2022/11/26 00:20:58;;;;;;;42.53;26.35;;;6.80;99.90;;;;;;5024582;28;20202;-81
2022/11/26 00:23:27;;;;;;;34.80;23.17;;;7.00;99.90;;;;;;5036984;28;20502;-82
2022/11/26 00:26:00;;;;;;;36.78;22.38;;;6.80;99.90;;;;;;5018725;28;20221;-82
2022/11/26 00:28:33;;;;;;;40.65;26.10;;;6.90;99.90;;;;;;5025591;28;20205;-82
2022/11/26 00:31:03;;;;;;;38.08;23.42;;;6.80;99.90;;;;;;5011720;28;20257;-81
2022/11/26 00:33:30;;;;;;;48.38;25.30;;;6.90;99.90;;;;;;5023318;28;20251;-82
2022/11/26 00:36:24;;;;;;;41.75;26.55;;;6.80;99.90;;;;;;5027362;28;20580;-79
2022/11/26 00:39:03;;;;;;;42.97;25.58;;;6.70;99.90;;;;;;5003970;28;20229;-81
2022/11/26 00:41:37;;;;;;;36.60;27.23;;;6.60;99.90;;;;;;5028391;28;20206;-81
2022/11/26 00:44:22;;;;;;;38.72;25.50;;;6.70;99.90;;;;;;5020253;28;20210;-81
2022/11/26 00:46:49;;;;;;;39.22;23.98;;;6.90;99.90;;;;;;5018143;28;20213;-81
2022/11/26 00:49:19;;;;;;;38.35;24.48;;;6.90;99.90;;;;;;5037988;28;20263;-81
2022/11/26 00:51:47;;;;;;;41.05;24.25;;;7.00;99.90;;;;;;5034905;28;20447;-81
2022/11/26 00:54:17;;;;;;;36.42;21.85;;;7.20;99.90;;;;;;5024525;28;20205;-81
2022/11/26 00:56:45;;;;;;;42.00;25.95;;;7.40;99.90;;;;;;5016167;28;20257;-80
2022/11/26 00:59:20;;;;;;;34.15;24.67;;;7.10;99.90;;;;;;5028777;28;20559;-80
2022/11/26 01:01:47;;;;;;;31.45;21.70;;;7.20;99.90;;;;;;5033144;28;20247;-81
2022/11/26 01:04:15;;;;;;;41.78;25.65;;;7.30;99.90;;;;;;5027410;28;20213;-81
2022/11/26 01:06:44;;;;;;;37.35;23.33;;;7.30;99.90;;;;;;5046149;28;20209;-81
2022/11/26 01:09:18;;;;;;;37.13;22.10;;;7.60;99.90;;;;;;5025817;28;20212;-81
2022/11/26 01:11:45;;;;;;;40.85;24.35;;;7.40;99.90;;;;;;5023873;28;20208;-81
2022/11/26 01:14:21;;;;;;;39.63;27.48;;;7.40;99.90;;;;;;5026551;28;20239;-82
2022/11/26 01:16:54;;;;;;;41.90;25.13;;;7.30;99.90;;;;;;5031962;28;20241;-80
2022/11/26 01:19:21;;;;;;;38.17;26.42;;;7.10;99.90;;;;;;5038515;28;20241;-80
2022/11/26 01:21:49;;;;;;;35.53;22.33;;;7.20;99.90;;;;;;5039457;28;20206;-81
2022/11/26 01:24:18;;;;;;;46.42;26.02;;;7.10;99.90;;;;;;5013127;28;20198;-82
2022/11/26 01:26:45;;;;;;;32.25;20.83;;;7.30;99.90;;;;;;5030168;28;20208;-81
2022/11/26 01:29:16;;;;;;;39.03;23.05;;;7.30;99.90;;;;;;5027287;28;20205;-82
2022/11/26 01:31:43;;;;;;;42.33;25.38;;;7.40;99.90;;;;;;5028389;28;20371;-82
2022/11/26 01:34:14;;;;;;;39.83;23.73;;;7.30;99.90;;;;;;5017349;28;20274;-81
2022/11/26 01:36:42;;;;;;;36.75;26.13;;;7.30;99.90;;;;;;5041811;28;20262;-82
2022/11/26 01:39:08;;;;;;;42.22;24.33;;;7.80;99.90;;;;;;5018703;28;20383;-82
2022/11/26 01:42:06;;;;;;;34.80;22.42;;;7.40;99.90;;;;;;5016983;28;20202;-81
2022/11/26 01:44:35;;;;;;;29.63;21.52;;;7.00;99.90;;;;;;5037242;28;20698;-81
2022/11/26 01:47:23;;;;;;;41.88;24.90;;;9.70;99.90;;;;;;5028159;28;20208;-81
2022/11/26 01:50:30;;;;;;;38.63;26.40;;;7.70;99.90;;;;;;5015391;28;20213;-80
2022/11/26 01:53:28;;;;;;;45.08;25.65;;;7.30;99.90;;;;;;5024831;28;20259;-80
2022/11/26 01:55:59;;;;;;;43.13;26.67;;;7.30;99.90;;;;;;5040034;28;20388;-79
2022/11/26 01:58:36;;;;;;;43.75;23.27;;;7.40;99.90;;;;;;5035458;28;20231;-80
2022/11/26 02:01:06;;;;;;;45.70;25.17;;;7.40;99.90;;;;;;5027530;28;20745;-80
2022/11/26 02:03:39;;;;;;;36.38;21.15;;;7.70;99.90;;;;;;5036675;28;20222;-82
2022/11/26 02:06:14;;;;;;;37.17;22.58;;;7.80;99.90;;;;;;5031378;28;20208;-80
2022/11/26 02:08:42;;;;;;;35.80;22.10;;;7.50;99.90;;;;;;5012090;28;20389;-81
2022/11/26 02:11:20;;;;;;;32.75;19.50;;;7.50;99.90;;;;;;5023581;28;20530;-80
2022/11/26 02:13:52;;;;;;;39.88;23.02;;;7.50;99.90;;;;;;5044298;28;20501;-80
2022/11/26 02:16:28;;;;;;;33.20;22.58;;;7.40;99.90;;;;;;5026976;28;20218;-80
2022/11/26 02:19:27;;;;;;;25.67;19.58;;;7.40;99.90;;;;;;5016845;28;20252;-81
2022/11/26 02:22:18;;;;;;;34.67;23.48;;;7.50;99.90;;;;;;5031226;28;20208;-81
2022/11/26 02:25:14;;;;;;;31.60;21.50;;;7.50;99.90;;;;;;5013381;28;20243;-80
2022/11/26 02:28:06;;;;;;;43.80;23.73;;;7.40;99.90;;;;;;5027042;28;20213;-81
2022/11/26 02:30:42;;;;;;;30.83;21.58;;;7.20;99.90;;;;;;5021548;28;20222;-79
2022/11/26 02:33:12;;;;;;;31.83;20.10;;;7.30;99.90;;;;;;5029385;28;20205;-81
2022/11/26 02:35:48;;;;;;;31.27;22.13;;;7.20;99.90;;;;;;5022785;28;20251;-81
2022/11/26 02:38:24;;;;;;;33.85;19.55;;;7.30;99.90;;;;;;5027826;28;20271;-81
2022/11/26 02:40:52;;;;;;;26.75;18.70;;;7.40;99.90;;;;;;5015835;28;20232;-81
2022/11/26 02:43:19;;;;;;;34.67;20.08;;;7.40;99.90;;;;;;5025149;28;20220;-81
2022/11/26 02:45:54;;;;;;;33.05;19.75;;;7.50;99.90;;;;;;5027066;28;20477;-81
2022/11/26 02:48:26;;;;;;;30.45;19.83;;;7.50;99.90;;;;;;5029482;28;20258;-81
2022/11/26 02:50:58;;;;;;;35.75;20.33;;;7.50;99.90;;;;;;5022828;28;20212;-81
2022/11/26 02:53:30;;;;;;;26.45;17.52;;;7.60;99.90;;;;;;5021305;28;20213;-80
2022/11/26 02:56:22;;;;;;;27.77;18.15;;;7.70;99.90;;;;;;5025252;28;20212;-80
2022/11/26 02:58:51;;;;;;;28.73;18.88;;;7.80;99.90;;;;;;5022321;28;20299;-80
2022/11/26 03:01:34;;;;;;;27.45;19.60;;;7.90;99.90;;;;;;5022710;28;20213;-81
2022/11/26 03:04:07;;;;;;;32.30;19.73;;;7.70;99.90;;;;;;5009539;28;20254;-80
2022/11/26 03:06:38;;;;;;;29.88;18.15;;;7.70;99.90;;;;;;5027048;28;20248;-81
2022/11/26 03:09:05;;;;;;;27.50;16.55;;;7.60;99.90;;;;;;5023143;28;20204;-81
2022/11/26 03:11:32;;;;;;;30.52;18.10;;;7.60;99.90;;;;;;5032831;28;20218;-82
2022/11/26 03:13:59;;;;;;;28.55;18.52;;;7.60;99.90;;;;;;5022162;28;20214;-82
2022/11/26 03:16:29;;;;;;;26.25;18.13;;;7.70;99.90;;;;;;5034304;28;20213;-81
2022/11/26 03:19:00;;;;;;;34.42;19.05;;;7.80;99.90;;;;;;5028635;28;20240;-81
2022/11/26 03:21:27;;;;;;;29.88;19.80;;;7.70;99.90;;;;;;5022567;28;20236;-82
2022/11/26 03:23:56;;;;;;;26.60;16.67;;;7.90;99.90;;;;;;5026519;28;20197;-81
2022/11/26 03:26:23;;;;;;;28.50;20.75;;;7.60;99.90;;;;;;5025660;28;20233;-79
2022/11/26 03:28:50;;;;;;;30.05;18.92;;;7.60;99.90;;;;;;5028984;28;20200;-78
2022/11/26 03:31:22;;;;;;;37.38;18.60;;;7.70;99.90;;;;;;5020334;28;21560;-79
2022/11/26 03:33:49;;;;;;;29.52;17.90;;;7.70;99.90;;;;;;5011761;28;20236;-78
2022/11/26 03:36:16;;;;;;;27.98;18.25;;;7.70;99.90;;;;;;5020750;28;20232;-78
2022/11/26 03:38:43;;;;;;;31.65;20.08;;;7.70;99.90;;;;;;5034468;28;20205;-79
2022/11/26 03:41:10;;;;;;;32.30;19.75;;;7.90;99.90;;;;;;5029679;28;20235;-78
2022/11/26 03:43:37;;;;;;;23.38;17.20;;;7.80;99.90;;;;;;5026246;28;20205;-80
2022/11/26 03:46:06;;;;;;;23.13;15.85;;;7.80;99.90;;;;;;5021335;28;20209;-80
2022/11/26 03:48:41;;;;;;;31.80;18.65;;;7.80;99.90;;;;;;5031722;28;20215;-82
2022/11/26 03:51:08;;;;;;;32.72;20.33;;;7.90;99.90;;;;;;5027055;28;20209;-80
2022/11/26 03:53:41;;;;;;;32.03;20.02;;;7.90;99.90;;;;;;5026519;28;20554;-83
2022/11/26 03:56:09;;;;;;;32.70;19.88;;;7.90;99.90;;;;;;5042034;28;20247;-80
2022/11/26 03:58:37;;;;;;;33.85;21.33;;;8.00;99.90;;;;;;5036856;28;20209;-79
2022/11/26 04:01:11;;;;;;;32.35;18.90;;;7.90;99.90;;;;;;5042234;28;20225;-81
2022/11/26 04:03:40;;;;;;;29.85;18.27;;;7.80;99.90;;;;;;5047782;28;20237;-81
2022/11/26 04:06:08;;;;;;;26.42;16.45;;;8.00;99.90;;;;;;5021394;28;20514;-80
2022/11/26 04:08:37;;;;;;;31.73;19.38;;;8.00;99.90;;;;;;5022929;28;20369;-81
2022/11/26 04:11:04;;;;;;;38.90;19.98;;;7.90;99.90;;;;;;5023521;28;20421;-79
2022/11/26 04:13:32;;;;;;;29.48;18.88;;;7.80;99.90;;;;;;5024304;28;20205;-80
2022/11/26 04:15:59;;;;;;;32.63;18.88;;;7.70;99.90;;;;;;5023935;28;20217;-80
2022/11/26 04:18:26;;;;;;;34.90;20.55;;;7.50;99.90;;;;;;5024113;28;20275;-80
2022/11/26 04:20:53;;;;;;;30.02;20.95;;;7.50;99.90;;;;;;5025769;28;20217;-79
2022/11/26 04:23:21;;;;;;;29.88;18.10;;;7.70;99.90;;;;;;5021271;28;20252;-79
2022/11/26 04:25:48;;;;;;;37.95;18.73;;;7.70;99.90;;;;;;5025010;28;20248;-80
2022/11/26 04:28:15;;;;;;;29.98;18.48;;;7.80;99.90;;;;;;5021122;28;20288;-80
2022/11/26 04:30:43;;;;;;;30.40;18.75;;;7.80;99.90;;;;;;5038231;28;20263;-80
2022/11/26 04:33:10;;;;;;;29.15;20.00;;;7.90;99.90;;;;;;5026418;28;20221;-82
2022/11/26 04:35:37;;;;;;;27.48;17.85;;;7.90;99.90;;;;;;5028980;28;20432;-80
2022/11/26 04:38:04;;;;;;;31.23;17.65;;;7.90;99.90;;;;;;5027761;28;20710;-81
2022/11/26 04:40:31;;;;;;;25.85;16.77;;;7.90;99.90;;;;;;5021557;28;20284;-80
2022/11/26 04:42:58;;;;;;;24.90;17.90;;;7.80;99.90;;;;;;5026825;28;20278;-80
2022/11/26 04:45:26;;;;;;;27.88;19.83;;;8.00;99.90;;;;;;5028684;28;20231;-81
2022/11/26 04:47:53;;;;;;;28.05;16.35;;;7.60;99.90;;;;;;5022447;28;20239;-81
2022/11/26 04:50:21;;;;;;;24.95;15.30;;;7.70;99.90;;;;;;5033870;28;20267;-82
2022/11/26 04:52:48;;;;;;;24.85;16.90;;;7.90;99.90;;;;;;5022131;28;20216;-81
2022/11/26 04:55:16;;;;;;;25.70;17.05;;;8.00;99.90;;;;;;5028105;28;20226;-81
2022/11/26 04:57:47;;;;;;;32.13;16.52;;;8.10;99.90;;;;;;5031268;28;20370;-81
2022/11/26 05:00:16;;;;;;;25.83;18.15;;;8.00;99.90;;;;;;5038165;28;20471;-81
2022/11/26 05:02:44;;;;;;;24.20;15.80;;;8.00;99.90;;;;;;5004636;28;20260;-81
2022/11/26 05:05:11;;;;;;;28.90;16.23;;;7.90;99.90;;;;;;5023934;28;20209;-81
2022/11/26 05:07:39;;;;;;;21.42;14.00;;;7.70;99.90;;;;;;5026839;28;20221;-82
2022/11/26 05:10:07;;;;;;;20.95;16.40;;;7.70;99.90;;;;;;5029313;28;20209;-81
2022/11/26 05:12:35;;;;;;;28.80;14.80;;;7.50;99.90;;;;;;5026765;28;20243;-81
2022/11/26 05:15:03;;;;;;;25.30;15.35;;;7.40;99.90;;;;;;5029511;28;20216;-81
2022/11/26 05:17:31;;;;;;;20.17;13.38;;;7.20;99.90;;;;;;5028867;28;20209;-81
2022/11/26 05:19:58;;;;;;;23.45;15.00;;;7.30;99.90;;;;;;5029161;28;20232;-81
2022/11/26 05:22:25;;;;;;;21.88;16.08;;;7.20;99.90;;;;;;5026714;28;20205;-80
2022/11/26 05:24:52;;;;;;;24.70;17.23;;;7.30;99.90;;;;;;5023549;28;20358;-82
2022/11/26 05:27:19;;;;;;;23.15;16.15;;;7.40;99.90;;;;;;5024942;28;20252;-80
2022/11/26 05:29:46;;;;;;;22.15;15.10;;;7.30;99.90;;;;;;5026167;28;20346;-81
2022/11/26 05:32:16;;;;;;;24.48;16.98;;;7.10;99.90;;;;;;5036109;28;20208;-80
2022/11/26 05:34:43;;;;;;;24.92;15.23;;;7.00;99.90;;;;;;5028279;28;20201;-80
2022/11/26 05:37:10;;;;;;;26.25;16.08;;;7.10;99.90;;;;;;5025345;28;20201;-80
2022/11/26 05:39:37;;;;;;;25.33;15.88;;;7.20;99.90;;;;;;5024868;28;20283;-80
2022/11/26 05:42:05;;;;;;;27.27;17.13;;;7.20;99.90;;;;;;5016211;28;20375;-81
2022/11/26 05:44:35;;;;;;;25.60;16.27;;;7.20;99.90;;;;;;5015678;28;20705;-81
2022/11/26 05:47:03;;;;;;;26.20;16.73;;;7.30;99.90;;;;;;5025134;28;20208;-81
2022/11/26 05:49:31;;;;;;;28.48;16.77;;;7.30;99.90;;;;;;5046352;28;20201;-80
2022/11/26 05:51:59;;;;;;;21.85;16.60;;;7.20;99.90;;;;;;5031232;28;20227;-80
2022/11/26 05:54:26;;;;;;;26.77;15.80;;;7.20;99.90;;;;;;5020694;28;20245;-79
2022/11/26 05:56:56;;;;;;;29.83;16.85;;;7.10;99.90;;;;;;5033574;28;20208;-80
2022/11/26 05:59:26;;;;;;;30.92;18.20;;;7.20;99.90;;;;;;5020521;28;20202;-81
2022/11/26 06:01:53;;;;;;;30.83;17.48;;;7.20;99.90;;;;;;5028505;28;20290;-81
2022/11/26 06:04:23;;;;;;;24.50;16.40;;;7.20;99.90;;;;;;5033552;28;20194;-81
2022/11/26 06:06:54;;;;;;;29.40;18.23;;;7.30;99.90;;;;;;5031373;28;20221;-80
2022/11/26 06:09:21;;;;;;;24.40;15.70;;;7.30;99.90;;;;;;5044667;28;20202;-81
2022/11/26 06:11:50;;;;;;;24.58;14.90;;;7.80;99.90;;;;;;5031597;28;20200;-82
2022/11/26 06:14:23;;;;;;;25.70;15.50;;;7.40;99.90;;;;;;5036501;28;20707;-82
2022/11/26 06:16:49;;;;;;;27.45;17.02;;;7.20;99.90;;;;;;5033300;28;20206;-80
2022/11/26 06:19:17;;;;;;;26.13;15.60;;;7.20;99.90;;;;;;5009597;28;20502;-81
2022/11/26 06:21:44;;;;;;;22.50;16.38;;;8.40;99.90;;;;;;5032891;28;20497;-80
2022/11/26 06:24:14;;;;;;;29.98;18.05;;;7.80;99.90;;;;;;5027247;28;20205;-80
2022/11/26 06:26:44;;;;;;;23.35;14.65;;;7.30;99.90;;;;;;5029030;28;20209;-82
2022/11/26 06:29:12;;;;;;;25.30;16.83;;;7.40;99.90;;;;;;5032865;28;20197;-82
2022/11/26 06:31:39;;;;;;;25.33;17.05;;;7.20;99.90;;;;;;5046446;28;20216;-81
2022/11/26 06:34:06;;;;;;;26.55;18.88;;;7.30;99.90;;;;;;5027708;28;20304;-80
2022/11/26 06:36:33;;;;;;;29.77;18.67;;;7.10;99.90;;;;;;5018766;28;20268;-81
2022/11/26 06:39:00;;;;;;;32.63;19.15;;;7.20;99.90;;;;;;5019486;28;20205;-80
2022/11/26 06:41:27;;;;;;;30.05;17.33;;;7.10;99.90;;;;;;5024470;28;20236;-81
2022/11/26 06:43:54;;;;;;;29.88;16.85;;;7.20;99.90;;;;;;5030788;28;20259;-82
2022/11/26 06:46:21;;;;;;;27.23;16.33;;;7.20;99.90;;;;;;5027177;28;20197;-82
2022/11/26 06:48:48;;;;;;;29.80;17.52;;;7.20;99.90;;;;;;5023861;28;20378;-82
2022/11/26 06:51:19;;;;;;;27.02;17.35;;;7.50;99.90;;;;;;5027753;28;20271;-82
2022/11/26 06:53:49;;;;;;;32.15;20.67;;;7.90;99.90;;;;;;5019942;28;20210;-81
2022/11/26 06:56:16;;;;;;;31.48;17.83;;;7.40;99.90;;;;;;5036834;28;20205;-82
2022/11/26 06:58:48;;;;;;;28.58;18.00;;;7.20;99.90;;;;;;5026941;28;20205;-81
2022/11/26 07:01:20;;;;;;;27.17;16.50;;;10.00;99.90;;;;;;5030222;28;20217;-84
2022/11/26 07:03:47;;;;;;;24.30;14.75;;;8.80;99.90;;;;;;5031584;28;20210;-83
2022/11/26 07:06:24;;;;;;;21.45;15.65;;;7.30;99.90;;;;;;5052526;28;20221;-82
2022/11/26 07:08:53;;;;;;;28.58;15.25;;;7.40;99.90;;;;;;5023846;28;20190;-84
2022/11/26 07:11:21;;;;;;;24.30;15.23;;;7.50;99.90;;;;;;5029331;28;20237;-85
2022/11/26 07:13:50;;;;;;;31.48;16.67;;;7.40;99.90;;;;;;5033147;28;20251;-82
2022/11/26 07:16:18;;;;;;;31.27;18.55;;;7.30;99.90;;;;;;5022018;28;20265;-82
2022/11/26 07:18:54;;;;;;;25.90;15.52;;;7.30;99.90;;;;;;5010344;28;20212;-82
2022/11/26 07:21:29;;;;;;;27.20;15.43;;;7.30;99.90;;;;;;5036903;28;20228;-83
2022/11/26 07:23:57;;;;;;;26.85;18.50;;;8.30;99.90;;;;;;5025364;28;20256;-81
2022/11/26 07:26:24;;;;;;;22.40;14.27;;;7.50;99.90;;;;;;5014288;28;20210;-82
2022/11/26 07:28:52;;;;;;;24.88;14.65;;;9.10;99.90;;;;;;5023135;28;20385;-84
2022/11/26 07:31:21;;;;;;;29.70;16.23;;;7.60;99.90;;;;;;5027603;28;20201;-83
2022/11/26 07:33:48;;;;;;;34.42;16.23;;;7.70;99.90;;;;;;5027462;28;20247;-83
2022/11/26 07:36:21;;;;;;;27.27;17.50;;;7.80;99.90;;;;;;5022684;28;20265;-83
2022/11/26 07:38:49;;;;;;;30.40;20.30;;;7.50;99.90;;;;;;5027518;28;20235;-82
2022/11/26 07:41:18;;;;;;;30.35;18.50;;;7.60;99.90;;;;;;5030032;28;20282;-81
2022/11/26 07:43:45;;;;;;;30.50;17.35;;;7.60;99.90;;;;;;5015795;28;20219;-82
2022/11/26 07:46:15;;;;;;;31.13;17.45;;;8.30;99.90;;;;;;5027112;28;20217;-81
2022/11/26 07:48:43;;;;;;;28.58;17.92;;;7.50;99.90;;;;;;5042197;28;20441;-81
2022/11/26 07:51:23;;;;;;;29.23;17.38;;;7.50;99.90;;;;;;5028832;28;20201;-81
2022/11/26 07:53:51;;;;;;;22.63;14.25;;;8.00;99.90;;;;;;5024661;28;20533;-81
2022/11/26 07:56:18;;;;;;;23.60;15.63;;;7.90;99.90;;;;;;5021030;28;20214;-82
2022/11/26 07:58:46;;;;;;;21.48;13.68;;;9.50;99.90;;;;;;5030689;28;20201;-83
2022/11/26 08:01:19;;;;;;;21.65;13.32;;;8.20;99.90;;;;;;5035874;28;20276;-82
2022/11/26 08:03:48;;;;;;;26.30;16.15;;;9.00;99.90;;;;;;5036664;28;20204;-82
2022/11/26 08:06:18;;;;;;;24.15;14.70;;;10.10;99.90;;;;;;5019895;28;20235;-82
2022/11/26 08:08:45;;;;;;;25.05;15.15;;;8.00;99.90;;;;;;5034679;28;20313;-81
2022/11/26 08:11:22;;;;;;;28.55;17.70;;;8.10;99.90;;;;;;5020159;28;20222;-82
2022/11/26 08:14:16;;;;;;;29.95;17.05;;;8.30;99.90;;;;;;5011822;28;20211;-83
2022/11/26 08:16:46;;;;;;;30.15;17.33;;;8.20;99.90;;;;;;5011367;28;20519;-82
2022/11/26 08:19:13;;;;;;;33.08;18.08;;;8.10;99.90;;;;;;5004159;28;20337;-82
2022/11/26 08:21:40;;;;;;;24.48;16.48;;;8.40;99.90;;;;;;5043681;28;20238;-82
2022/11/26 08:24:13;;;;;;;28.90;17.25;;;8.10;99.90;;;;;;5037642;28;20205;-82
2022/11/26 08:26:41;;;;;;;22.25;16.02;;;8.20;99.90;;;;;;5038259;28;20753;-83
2022/11/26 08:29:17;;;;;;;18.58;13.77;;;8.30;99.90;;;;;;5026489;28;20244;-83
2022/11/26 08:31:50;;;;;;;19.30;15.10;;;8.20;99.90;;;;;;5027619;28;20647;-83
2022/11/26 08:34:20;;;;;;;21.88;11.57;;;;;;;;;;5031528;28;20186;-82
2022/11/26 08:36:48;;;;;;;17.52;12.43;;;;;;;;;;5034417;28;20201;-82
2022/11/26 08:39:17;;;;;;;17.10;12.23;;;8.20;99.90;;;;;;5026716;28;20416;-83
2022/11/26 08:41:45;;;;;;;16.42;10.63;;;8.60;99.90;;;;;;5015990;28;20244;-83
2022/11/26 08:44:18;;;;;;;15.43;12.80;;;8.20;99.90;;;;;;5021456;28;20273;-82
2022/11/26 08:46:45;;;;;;;18.52;12.35;;;8.50;99.90;;;;;;5019731;28;20418;-82
2022/11/26 08:49:13;;;;;;;17.80;12.23;;;8.20;99.90;;;;;;5023739;28;20221;-81
2022/11/26 08:51:42;;;;;;;18.70;12.35;;;8.60;99.90;;;;;;5022713;28;20217;-81
2022/11/26 08:54:09;;;;;;;15.10;11.32;;;8.20;99.90;;;;;;5029483;28;20209;-82
2022/11/26 08:56:38;;;;;;;13.43;10.35;;;8.20;99.90;;;;;;5019998;28;20213;-83
2022/11/26 08:59:05;;;;;;;15.18;12.73;;;8.30;99.90;;;;;;5018282;28;20220;-83
2022/11/26 09:01:32;;;;;;;19.50;13.48;;;8.50;99.90;;;;;;5017910;28;20230;-83
2022/11/26 09:04:01;;;;;;;17.45;12.65;;;8.30;99.90;;;;;;5022846;28;20220;-82
2022/11/26 09:06:30;;;;;;;11.27;9.82;;;8.10;99.90;;;;;;5019876;28;20532;-83
2022/11/26 09:09:11;;;;;;;9.48;7.40;;;8.00;99.90;;;;;;5035635;28;20205;-84
2022/11/26 09:11:43;;;;;;;10.75;6.82;;;7.90;99.90;;;;;;5026487;28;20217;-82
2022/11/26 09:14:11;;;;;;;12.20;6.30;;;8.00;99.90;;;;;;5024823;28;20504;-82
2022/11/26 09:16:38;;;;;;;8.35;6.03;;;8.00;99.90;;;;;;5027320;28;20275;-83
2022/11/26 09:19:07;;;;;;;8.57;6.43;;;8.20;99.90;;;;;;5026652;28;20275;-84
2022/11/26 09:21:34;;;;;;;9.10;7.15;;;8.10;99.90;;;;;;5027625;28;20233;-85
2022/11/26 09:24:03;;;;;;;9.35;7.75;;;8.10;99.90;;;;;;5023381;28;20222;-80
2022/11/26 09:26:31;;;;;;;11.15;7.53;;;8.10;99.90;;;;;;5024862;28;20249;-81
2022/11/26 09:28:58;;;;;;;6.90;5.90;;;8.10;99.90;;;;;;5025158;28;20213;-82
2022/11/26 09:31:26;;;;;;;10.18;6.10;;;8.10;99.90;;;;;;5019907;28;20468;-82
2022/11/26 09:33:58;;;;;;;7.32;5.57;;;8.10;99.90;;;;;;5023034;28;20320;-82
2022/11/26 09:36:26;;;;;;;9.27;6.63;;;8.10;99.90;;;;;;5018313;28;20281;-84
2022/11/26 09:38:57;;;;;;;13.88;7.35;;;8.10;99.90;;;;;;5017090;28;20210;-83
2022/11/26 09:41:57;;;;;;;8.40;6.28;;;8.00;99.90;;;;;;5020981;28;20248;-83
2022/11/26 09:44:57;;;;;;;6.40;5.60;;;8.10;99.90;;;;;;5024885;28;20243;-82
2022/11/26 09:47:35;;;;;;;6.90;5.65;;;8.10;99.90;;;;;;5013414;28;20228;-82
2022/11/26 09:50:13;;;;;;;6.60;5.70;;;8.30;99.90;;;;;;5012736;28;20248;-83
2022/11/26 09:53:18;;;;;;;7.13;6.00;;;8.00;99.90;;;;;;5023223;28;20205;-82
2022/11/26 09:55:49;;;;;;;6.82;5.35;;;8.10;99.90;;;;;;5029934;28;20489;-81
2022/11/26 09:58:37;;;;;;;8.30;7.13;;;7.90;99.90;;;;;;5021465;28;20304;-83
2022/11/26 10:01:06;;;;;;;6.45;5.85;;;8.30;99.90;;;;;;5012029;28;20594;-83
2022/11/26 10:03:35;;;;;;;7.53;6.35;;;8.20;99.90;;;;;;5016852;28;20207;-81
2022/11/26 10:06:03;;;;;;;7.35;6.00;;;8.40;99.90;;;;;;5019985;28;20246;-82
2022/11/26 10:08:51;;;;;;;8.30;6.90;;;8.10;99.90;;;;;;5026847;28;20210;-83
2022/11/26 10:11:38;;;;;;;10.07;7.57;;;8.40;99.90;;;;;;5017903;28;20446;-86
2022/11/26 10:14:31;;;;;;;7.93;5.63;;;8.00;99.90;;;;;;5014371;28;20197;-84
2022/11/26 10:17:26;;;;;;;5.70;5.15;;;8.20;99.90;;;;;;5018099;28;20401;-83
2022/11/26 10:20:05;;;;;;;7.38;5.93;;;8.10;99.90;;;;;;5017335;28;20440;-83
2022/11/26 10:22:39;;;;;;;5.20;4.70;;;7.90;99.90;;;;;;5017658;28;20277;-84
2022/11/26 10:25:22;;;;;;;6.22;5.45;;;8.20;99.90;;;;;;5024216;28;20216;-82
2022/11/26 10:27:50;;;;;;;4.63;3.67;;;8.10;99.90;;;;;;5019694;28;20237;-82
2022/11/26 10:30:20;;;;;;;6.50;5.07;;;7.80;99.90;;;;;;5015088;28;20568;-83
2022/11/26 10:32:49;;;;;;;7.53;4.97;;;8.20;99.90;;;;;;5012343;28;20525;-84
2022/11/26 10:35:21;;;;;;;5.35;4.85;;;8.20;99.90;;;;;;5010115;28;20375;-81
2022/11/26 10:37:49;;;;;;;6.35;3.92;;;8.20;99.90;;;;;;5017474;28;20194;-82
2022/11/26 10:40:31;;;;;;;5.20;4.70;;;10.30;99.90;;;;;;5033643;28;20185;-84
2022/11/26 10:43:04;;;;;;;6.00;4.28;;;9.10;99.90;;;;;;5019879;28;20444;-83
2022/11/26 10:45:52;;;;;;;5.55;5.00;;;8.20;99.90;;;;;;5030447;28;20424;-82
2022/11/26 10:48:34;;;;;;;5.15;4.60;;;8.50;99.90;;;;;;5007216;28;20451;-84
2022/11/26 10:51:12;;;;;;;5.45;4.93;;;8.00;99.90;;;;;;5027534;28;20213;-85
2022/11/26 10:53:50;;;;;;;5.25;4.80;;;8.00;99.90;;;;;;5019691;28;20225;-82
2022/11/26 10:56:44;;;;;;;5.22;4.55;;;8.00;99.90;;;;;;5022788;28;20210;-82
2022/11/26 10:59:28;;;;;;;6.78;5.47;;;8.00;99.90;;;;;;5016730;28;20461;-82
2022/11/26 11:02:02;;;;;;;6.32;5.72;;;8.10;99.90;;;;;;5019900;28;20208;-82
2022/11/26 11:04:33;;;;;;;5.57;5.07;;;8.10;99.90;;;;;;5010983;28;20272;-81
2022/11/26 11:07:01;;;;;;;7.20;6.00;;;8.00;99.90;;;;;;5019136;28;20207;-86
2022/11/26 11:09:36;;;;;;;9.27;7.93;;;8.00;99.90;;;;;;5022092;28;20515;-85
2022/11/26 11:12:09;;;;;;;9.52;8.52;;;7.70;99.90;;;;;;5023676;28;20459;-81
2022/11/26 11:14:43;;;;;;;8.55;7.65;;;7.50;99.90;;;;;;5033108;28;20206;-82
2022/11/26 11:17:31;;;;;;;9.63;7.88;;;7.40;99.90;;;;;;5010740;28;20263;-82
2022/11/26 11:20:13;;;;;;;11.57;7.80;;;7.50;99.90;;;;;;5008801;28;20213;-81
2022/11/26 11:22:41;;;;;;;10.88;9.23;;;7.50;99.90;;;;;;5005876;28;20238;-86
2022/11/26 11:25:26;;;;;;;10.43;9.00;;;7.70;99.90;;;;;;5020658;28;20214;-82
2022/11/26 11:28:04;;;;;;;10.20;8.75;;;7.60;99.90;;;;;;5014539;28;20202;-85
2022/11/26 11:30:39;;;;;;;9.57;8.13;;;7.50;99.90;;;;;;5035249;28;20239;-81
2022/11/26 11:33:18;;;;;;;11.18;8.93;;;7.70;99.90;;;;;;5030990;28;20209;-82
2022/11/26 11:36:04;;;;;;;10.15;8.60;;;7.50;99.90;;;;;;5014088;28;20268;-82
2022/11/26 11:38:45;;;;;;;16.27;11.63;;;7.50;99.90;;;;;;5015811;28;20209;-81
2022/11/26 11:41:44;;;;;;;15.82;11.43;;;7.50;99.90;;;;;;5012069;28;20229;-83
2022/11/26 11:44:49;;;;;;;14.98;13.13;;;7.40;99.90;;;;;;5013636;28;20249;-83
2022/11/26 11:47:31;;;;;;;16.25;12.25;;;7.20;99.90;;;;;;5004541;28;20269;-85
2022/11/26 11:50:32;;;;;;;19.52;15.65;;;7.20;99.90;;;;;;5020115;28;20531;-84
2022/11/26 11:53:02;;;;;;;19.77;16.02;;;7.00;99.90;;;;;;5013218;28;20213;-90
2022/11/26 11:55:48;;;;;;;22.17;14.77;;;6.90;99.90;;;;;;5040663;28;20212;-83
2022/11/26 11:58:25;;;;;;;21.10;15.65;;;6.90;99.90;;;;;;5043460;28;20303;-86
2022/11/26 12:00:59;;;;;;;17.52;14.02;;;6.90;99.90;;;;;;5014859;28;20618;-82
2022/11/26 12:04:02;;;;;;;18.35;15.38;;;7.00;99.90;;;;;;5030020;28;20208;-83
2022/11/26 12:07:04;;;;;;;19.05;14.75;;;7.10;99.90;;;;;;5023756;28;20205;-88
2022/11/26 12:09:40;;;;;;;21.58;15.95;;;7.10;99.90;;;;;;5032999;28;20206;-84
2022/11/26 12:12:43;;;;;;;18.27;16.05;;;7.20;99.90;;;;;;5034328;28;20213;-82
2022/11/26 12:15:22;;;;;;;18.73;16.48;;;7.20;99.90;;;;;;5005590;28;20214;-83
2022/11/26 12:18:17;;;;;;;21.02;17.08;;;7.30;99.90;;;;;;5028368;28;20244;-82
2022/11/26 12:20:53;;;;;;;25.50;16.85;;;7.40;99.90;;;;;;5016496;28;20212;-82
2022/11/26 12:23:35;;;;;;;17.38;15.57;;;7.40;99.90;;;;;;5035543;28;20193;-80
2022/11/26 12:26:21;;;;;;;23.35;17.38;;;7.30;99.90;;;;;;5031438;28;20393;-84
2022/11/26 12:28:56;;;;;;;25.40;18.55;;;7.20;99.90;;;;;;5029417;28;20235;-82
2022/11/26 12:31:51;;;;;;;25.08;17.15;;;7.90;99.90;;;;;;5037194;28;20230;-86
2022/11/26 12:34:37;;;;;;;22.58;19.20;;;7.40;99.90;;;;;;5030074;28;20208;-83
2022/11/26 12:37:18;;;;;;;21.33;16.83;;;7.40;99.90;;;;;;5028189;28;20225;-83
2022/11/26 12:39:48;;;;;;;22.00;18.00;;;7.60;99.90;;;;;;5034032;28;20197;-83
2022/11/26 12:42:29;;;;;;;25.77;18.00;;;8.70;99.90;;;;;;5025708;28;20275;-82
2022/11/26 12:45:20;;;;;;;22.10;18.05;;;8.10;99.90;;;;;;5027901;28;20564;-82
2022/11/26 12:47:56;;;;;;;25.42;18.73;;;8.50;99.90;;;;;;5013462;28;20247;-81
2022/11/26 12:50:46;;;;;;;21.30;18.15;;;8.70;99.90;;;;;;5026009;28;20228;-81
2022/11/26 12:53:31;;;;;;;20.60;15.70;;;8.60;99.90;;;;;;5032040;28;20208;-82
2022/11/26 12:56:23;;;;;;;20.58;15.48;;;8.40;99.90;;;;;;5028831;28;20216;-82
2022/11/26 12:58:57;;;;;;;19.55;15.50;;;8.40;99.90;;;;;;5024933;28;20585;-82
2022/11/26 13:01:25;;;;;;;16.45;14.70;;;8.40;99.90;;;;;;5030416;28;20236;-84
2022/11/26 13:03:59;;;;;;;17.70;14.43;;;8.30;99.90;;;;;;5025992;28;20255;-84
2022/11/26 13:07:08;;;;;;;18.83;15.35;;;8.30;99.90;;;;;;5039359;28;20446;-82
2022/11/26 13:09:50;;;;;;;18.92;14.20;;;8.20;99.90;;;;;;5021210;28;20202;-83
2022/11/26 13:12:34;;;;;;;18.48;15.32;;;8.30;99.90;;;;;;5029954;28;20201;-83